Time;durP1;ratioP1;P1;durP2;ratioP2;P2;SDS_P1;SDS_P2;PMS_P1;PMS_P2;Temp;Humidity;BMP_temperature;BMP_pressure;BME280_temperature;BME280_humidity;BME280_pressure;Samples;Min_cycle;Max_cycle;Signal;HPM_P1;HPM_P2
2020/12/07 00:02:40;;;;;;;15.90;6.23;;;;;;;;;;4966227;28;20550;-72
2020/12/07 00:05:44;;;;;;;10.03;5.77;;;;;;;;;;4996690;28;20601;-72
2020/12/07 00:08:48;;;;;;;9.90;5.87;;;;;;;;;;4985234;28;20598;-71
2020/12/07 00:11:52;;;;;;;10.23;5.70;;;;;;;;;;4976983;28;20882;-72
2020/12/07 00:14:56;;;;;;;7.97;5.13;;;;;;;;;;4965075;28;20542;-72
2020/12/07 00:18:01;;;;;;;9.70;5.50;;;;;;;;;;4980751;28;20960;-71
2020/12/07 00:21:08;;;;;;;7.77;4.80;;;;;;;;;;4995677;28;20593;-73
2020/12/07 00:24:13;;;;;;;7.97;4.67;;;;;;;;;;4979679;28;20626;-72
2020/12/07 00:27:28;;;;;;;8.03;4.33;;;;;;;;;;4976635;28;20621;-72
2020/12/07 00:30:34;;;;;;;8.77;4.77;;;;;;;;;;4996135;28;20542;-72
2020/12/07 00:33:38;;;;;;;6.03;4.23;;;;;;;;;;4993888;28;20582;-71
2020/12/07 00:36:43;;;;;;;6.23;4.27;;;;;;;;;;4995498;28;20654;-72
2020/12/07 00:39:47;;;;;;;6.00;4.20;;;;;;;;;;4996181;28;20542;-72
2020/12/07 00:42:51;;;;;;;5.30;4.27;;;;;;;;;;4976690;28;20649;-71
2020/12/07 00:45:57;;;;;;;4.93;3.80;;;;;;;;;;4953317;28;20614;-72
2020/12/07 00:49:02;;;;;;;5.63;3.97;;;;;;;;;;4976258;28;20594;-72
2020/12/07 00:52:07;;;;;;;5.97;4.57;;;;;;;;;;4964449;28;21172;-71
2020/12/07 00:55:12;;;;;;;6.00;4.30;;;;;;;;;;4959432;28;21164;-72
2020/12/07 00:58:16;;;;;;;6.40;4.63;;;;;;;;;;4953304;28;20902;-72
2020/12/07 01:01:21;;;;;;;6.27;4.80;;;;;;;;;;4964124;28;20551;-72
2020/12/07 01:04:26;;;;;;;6.77;5.53;;;;;;;;;;4953307;28;20954;-72
2020/12/07 01:07:34;;;;;;;7.80;6.13;;;;;;;;;;4988450;28;20654;-71
2020/12/07 01:10:38;;;;;;;7.13;5.63;;;;;;;;;;4964094;28;20563;-72
2020/12/07 01:13:43;;;;;;;6.63;5.63;;;;;;;;;;4982163;28;20593;-71
2020/12/07 01:16:48;;;;;;;7.73;6.10;;;;;;;;;;4982685;28;20649;-72
2020/12/07 01:19:54;;;;;;;6.30;5.43;;;;;;;;;;4982901;28;20546;-72
2020/12/07 01:23:02;;;;;;;8.17;6.37;;;;;;;;;;4958939;28;20595;-71
2020/12/07 01:26:09;;;;;;;8.60;6.37;;;;;;;;;;4977138;28;20637;-71
2020/12/07 01:29:14;;;;;;;9.17;6.40;;;;;;;;;;4963700;28;20543;-72
2020/12/07 01:32:19;;;;;;;8.57;6.80;;;;;;;;;;4974861;28;20595;-71
2020/12/07 01:35:27;;;;;;;7.23;5.97;;;;;;;;;;4963294;28;20618;-72
2020/12/07 01:38:31;;;;;;;7.57;6.37;;;;;;;;;;4963279;28;20594;-71
2020/12/07 01:41:35;;;;;;;8.17;6.13;;;;;;;;;;4953402;28;20550;-72
2020/12/07 01:44:40;;;;;;;9.20;6.57;;;;;;;;;;4971718;28;20593;-72
2020/12/07 01:47:44;;;;;;;10.13;7.43;;;;;;;;;;4981796;28;20652;-71
2020/12/07 01:50:53;;;;;;;9.33;6.67;;;;;;;;;;4982626;28;20605;-72
2020/12/07 01:53:57;;;;;;;10.53;7.57;;;;;;;;;;4952115;28;20602;-72
2020/12/07 01:57:02;;;;;;;11.63;8.23;;;;;;;;;;4963369;28;21258;-71
2020/12/07 02:00:08;;;;;;;11.57;8.30;;;;;;;;;;4963379;28;20547;-72
2020/12/07 02:03:24;;;;;;;10.77;8.30;;;;;;;;;;4990312;28;20626;-71
2020/12/07 02:06:28;;;;;;;11.70;8.53;;;;;;;;;;4982026;28;20637;-71
2020/12/07 02:09:33;;;;;;;12.13;9.13;;;;;;;;;;4971565;28;20886;-72
2020/12/07 02:12:38;;;;;;;11.57;8.43;;;;;;;;;;4972720;28;20594;-71
2020/12/07 02:15:44;;;;;;;10.63;7.77;;;;;;;;;;4952206;28;22340;-72
2020/12/07 02:18:49;;;;;;;13.20;9.17;;;;;;;;;;4981372;28;20581;-71
2020/12/07 02:21:53;;;;;;;13.70;9.80;;;;;;;;;;4967870;28;21147;-71
2020/12/07 02:25:00;;;;;;;13.93;9.57;;;;;;;;;;4973807;28;20630;-71
2020/12/07 02:28:09;;;;;;;13.90;9.73;;;;;;;;;;4975035;28;20547;-72
2020/12/07 02:31:13;;;;;;;15.37;10.10;;;;;;;;;;4963454;28;20946;-71
2020/12/07 02:34:18;;;;;;;15.13;9.63;;;;;;;;;;4952158;28;20543;-71
2020/12/07 02:37:27;;;;;;;14.27;10.13;;;;;;;;;;4981006;28;21214;-71
2020/12/07 02:40:33;;;;;;;13.43;9.67;;;;;;;;;;4981635;28;20549;-72
2020/12/07 02:43:39;;;;;;;14.33;9.90;;;;;;;;;;4964656;28;20598;-72
2020/12/07 02:46:45;;;;;;;14.23;10.23;;;;;;;;;;4962239;28;20606;-72
2020/12/07 02:49:55;;;;;;;14.43;9.80;;;;;;;;;;4962401;28;20598;-72
2020/12/07 02:52:59;;;;;;;14.17;9.90;;;;;;;;;;4965462;28;20598;-71
2020/12/07 02:56:04;;;;;;;14.67;10.30;;;;;;;;;;4962327;28;20625;-72
2020/12/07 02:59:15;;;;;;;12.70;9.57;;;;;;;;;;4971421;28;20538;-72
2020/12/07 03:02:21;;;;;;;14.30;10.73;;;;;;;;;;4975565;28;20934;-71
2020/12/07 03:05:28;;;;;;;13.47;9.73;;;;;;;;;;4962337;28;20586;-72
2020/12/07 03:08:36;;;;;;;13.33;9.67;;;;;;;;;;4962047;28;20602;-72
2020/12/07 03:11:44;;;;;;;15.80;9.97;;;;;;;;;;4963396;28;20618;-71
2020/12/07 03:14:49;;;;;;;13.33;10.00;;;;;;;;;;4962167;28;20538;-72
2020/12/07 03:17:53;;;;;;;13.80;10.13;;;;;;;;;;4989251;28;20624;-71
2020/12/07 03:21:04;;;;;;;14.40;9.47;;;;;;;;;;4985896;28;20601;-71
2020/12/07 03:24:08;;;;;;;12.83;9.27;;;;;;;;;;4977218;28;21069;-72
2020/12/07 03:27:14;;;;;;;12.57;9.00;;;;;;;;;;4965868;28;20629;-72
2020/12/07 03:30:19;;;;;;;13.40;9.07;;;;;;;;;;4976946;28;20887;-72
2020/12/07 03:33:23;;;;;;;13.03;9.13;;;;;;;;;;4986171;28;20594;-71
2020/12/07 03:36:28;;;;;;;11.57;8.80;;;;;;;;;;4965207;28;20665;-72
2020/12/07 03:39:31;;;;;;;12.37;9.00;;;;;;;;;;4965657;28;20891;-72
2020/12/07 03:42:39;;;;;;;11.13;8.40;;;;;;;;;;4966514;28;20597;-71
2020/12/07 03:45:46;;;;;;;11.50;8.43;;;;;;;;;;4995693;28;20656;-72
2020/12/07 03:48:54;;;;;;;11.90;8.87;;;;;;;;;;4965567;28;20543;-72
2020/12/07 03:51:58;;;;;;;11.40;8.73;;;;;;;;;;4954517;28;21203;-71
2020/12/07 03:55:03;;;;;;;10.90;8.03;;;;;;;;;;4954165;28;20617;-72
2020/12/07 03:58:08;;;;;;;11.07;8.07;;;;;;;;;;4965142;28;20934;-72
2020/12/07 04:01:12;;;;;;;10.03;7.90;;;;;;;;;;4954238;28;20914;-73
2020/12/07 04:04:26;;;;;;;10.33;7.33;;;;;;;;;;4965207;28;20550;-73
2020/12/07 04:07:32;;;;;;;9.87;7.67;;;;;;;;;;4984607;28;20653;-71
2020/12/07 04:10:37;;;;;;;12.27;8.20;;;;;;;;;;4984507;28;20608;-73
2020/12/07 04:13:42;;;;;;;10.30;7.60;;;;;;;;;;4965151;28;20582;-72
2020/12/07 04:16:46;;;;;;;10.40;7.33;;;;;;;;;;4976714;28;20617;-73
2020/12/07 04:19:50;;;;;;;10.10;7.70;;;;;;;;;;4964992;28;20542;-73
2020/12/07 04:22:54;;;;;;;10.13;7.50;;;;;;;;;;4989353;28;20925;-71
2020/12/07 04:25:59;;;;;;;9.90;7.57;;;;;;;;;;4988224;28;21235;-71
2020/12/07 04:29:03;;;;;;;10.60;7.63;;;;;;;;;;4975734;28;20875;-72
2020/12/07 04:32:10;;;;;;;11.57;7.83;;;;;;;;;;4971586;28;20597;-72
2020/12/07 04:35:14;;;;;;;9.63;6.90;;;;;;;;;;4981823;28;20976;-72
2020/12/07 04:38:18;;;;;;;10.87;7.23;;;;;;;;;;5021152;23;21049;-73
2020/12/07 04:41:22;;;;;;;8.83;6.80;;;;;;;;;;5035281;28;20544;-73
2020/12/07 04:44:27;;;;;;;9.57;7.17;;;;;;;;;;5022814;28;20544;-73
2020/12/07 04:47:33;;;;;;;8.53;6.77;;;;;;;;;;5020152;28;20636;-73
2020/12/07 04:50:37;;;;;;;9.30;6.57;;;;;;;;;;5002933;28;20545;-73
2020/12/07 04:53:43;;;;;;;8.57;6.63;;;;;;;;;;5015319;28;20911;-73
2020/12/07 04:56:48;;;;;;;9.43;6.93;;;;;;;;;;5007666;28;20649;-73
2020/12/07 04:59:52;;;;;;;9.73;7.30;;;;;;;;;;4983683;28;21076;-73
2020/12/07 05:02:59;;;;;;;8.27;6.63;;;;;;;;;;4995508;28;20589;-73
2020/12/07 05:06:04;;;;;;;7.77;6.17;;;;;;;;;;4996183;28;20989;-73
2020/12/07 05:09:09;;;;;;;7.43;6.33;;;;;;;;;;5015266;28;21083;-73
2020/12/07 05:12:22;;;;;;;7.17;5.53;;;;;;;;;;5014958;28;20888;-73
2020/12/07 05:15:26;;;;;;;8.70;6.90;;;;;;;;;;5002937;28;20925;-73
2020/12/07 05:18:35;;;;;;;7.87;6.40;;;;;;;;;;4995185;28;20596;-73
2020/12/07 05:21:39;;;;;;;8.20;6.20;;;;;;;;;;4995330;28;20593;-73
2020/12/07 05:24:50;;;;;;;8.63;6.63;;;;;;;;;;4994200;28;20597;-72
2020/12/07 05:27:57;;;;;;;8.23;6.10;;;;;;;;;;4996952;28;20600;-72
2020/12/07 05:31:01;;;;;;;8.97;6.60;;;;;;;;;;5011198;28;20589;-73
2020/12/07 05:34:05;;;;;;;8.70;6.10;;;;;;;;;;5003507;28;20593;-73
2020/12/07 05:37:10;;;;;;;6.93;5.83;;;;;;;;;;5006132;28;20648;-73
2020/12/07 05:40:14;;;;;;;10.13;5.63;;;;;;;;;;5013762;28;20593;-73
2020/12/07 05:43:20;;;;;;;7.10;5.87;;;;;;;;;;5002356;28;20528;-72
2020/12/07 05:46:27;;;;;;;6.90;5.57;;;;;;;;;;4989302;28;20664;-73
2020/12/07 05:49:34;;;;;;;7.30;5.63;;;;;;;;;;5014319;28;20549;-73
2020/12/07 05:52:57;;;;;;;6.87;5.40;;;;;;;;;;5012821;28;20615;-72
2020/12/07 05:56:05;;;;;;;7.00;5.23;;;;;;;;;;5001726;28;20620;-72
2020/12/07 05:59:19;;;;;;;7.10;5.43;;;;;;;;;;4996700;28;21185;-71
2020/12/07 06:02:23;;;;;;;7.30;5.87;;;;;;;;;;5001631;28;20620;-70
2020/12/07 06:05:28;;;;;;;6.23;5.27;;;;;;;;;;5004508;28;20625;-70
2020/12/07 06:08:36;;;;;;;8.37;6.43;;;;;;;;;;4994126;28;20546;-73
2020/12/07 06:11:48;;;;;;;7.53;5.70;;;;;;;;;;4994299;28;20545;-72
2020/12/07 06:14:53;;;;;;;5.90;5.30;;;;;;;;;;4994286;28;20546;-72
2020/12/07 06:17:57;;;;;;;6.83;5.53;;;;;;;;;;5005726;28;20612;-72
2020/12/07 06:21:09;;;;;;;7.73;5.73;;;;;;;;;;5013799;28;20545;-72
2020/12/07 06:24:13;;;;;;;6.43;4.90;;;;;;;;;;5013722;28;20592;-72
2020/12/07 06:27:19;;;;;;;6.37;5.17;;;;;;;;;;5013358;28;20648;-72
2020/12/07 06:30:30;;;;;;;6.30;4.97;;;;;;;;;;5013734;28;20545;-72
2020/12/07 06:33:45;;;;;;;8.27;4.83;;;;;;;;;;5001933;28;20544;-71
2020/12/07 06:36:49;;;;;;;4.83;3.93;;;;;;;;;;5013806;28;20615;-72
2020/12/07 06:39:58;;;;;;;6.07;4.73;;;;;;;;;;5001466;28;20561;-72
2020/12/07 06:43:17;;;;;;;5.67;4.57;;;;;;;;;;5013592;28;20549;-72
2020/12/07 06:46:47;;;;;;;5.93;4.73;;;;;;;;;;5013497;28;20648;-72
2020/12/07 06:50:01;;;;;;;5.00;4.17;;;;;;;;;;5013514;28;20540;-72
2020/12/07 06:56:36;;;;;;;6.20;5.10;;;;;;;;;;4997962;28;20612;-71
2020/12/07 06:59:40;;;;;;;5.73;4.83;;;;;;;;;;4997688;28;20537;-72
2020/12/07 07:02:46;;;;;;;8.83;5.10;;;;;;;;;;4985377;28;20557;-72
2020/12/07 07:05:50;;;;;;;5.87;4.53;;;;;;;;;;4996660;28;20656;-72
2020/12/07 07:08:59;;;;;;;5.60;4.50;;;;;;;;;;4985690;28;20542;-71
2020/12/07 07:12:03;;;;;;;6.10;5.00;;;;;;;;;;4997403;28;20558;-71
2020/12/07 07:15:09;;;;;;;6.20;4.63;;;;;;;;;;4985502;28;20545;-71
2020/12/07 07:18:13;;;;;;;5.77;4.73;;;;;;;;;;4985430;28;20537;-72
2020/12/07 07:21:17;;;;;;;5.67;4.60;;;;;;;;;;4974449;28;20900;-71
2020/12/07 07:24:23;;;;;;;5.27;4.20;;;;;;;;;;4996972;28;20609;-71
2020/12/07 07:30:50;;;;;;;6.90;5.07;;;;;;;;;;4997130;28;20546;-72
2020/12/07 07:33:54;;;;;;;5.67;4.70;;;;;;;;;;4997006;28;20889;-71
2020/12/07 07:36:59;;;;;;;6.03;4.60;;;;;;;;;;4996719;28;20614;-71
2020/12/07 07:40:15;;;;;;;5.77;4.27;;;;;;;;;;4996966;28;21154;-71
2020/12/07 07:43:24;;;;;;;5.67;4.50;;;;;;;;;;4996842;28;20597;-71
2020/12/07 07:46:32;;;;;;;6.07;4.90;;;;;;;;;;4996463;28;20645;-71
2020/12/07 07:50:52;;;;;;;6.60;5.13;;;;;;;;;;4996936;28;20549;-71
2020/12/07 08:00:34;;;;;;;5.17;4.47;;;;;;;;;;5016315;28;20545;-71
2020/12/07 08:15:20;;;;;;;5.77;4.83;;;;;;;;;;5016175;28;20540;-72
2020/12/07 08:17:18;;;;;;;6.40;5.50;;;;;;;;;;5015519;28;20639;-72
2020/12/07 08:20:25;;;;;;;6.93;5.00;;;;;;;;;;5015945;28;20545;-72
2020/12/07 08:23:31;;;;;;;6.73;5.33;;;;;;;;;;5015898;28;20545;-72
2020/12/07 08:26:42;;;;;;;6.23;4.90;;;;;;;;;;5014752;28;20644;-71
2020/12/07 08:29:47;;;;;;;5.73;4.80;;;;;;;;;;4992852;28;20541;-71
2020/12/07 08:32:51;;;;;;;7.53;5.63;;;;;;;;;;5015436;28;20557;-71
2020/12/07 08:35:56;;;;;;;6.40;5.40;;;;;;;;;;5003537;28;20620;-71
2020/12/07 08:39:00;;;;;;;6.77;5.30;;;;;;;;;;5003117;28;20615;-71
2020/12/07 08:42:05;;;;;;;7.37;5.03;;;;;;;;;;5015227;28;20601;-71
2020/12/07 08:45:09;;;;;;;5.70;5.10;;;;;;;;;;5003493;28;20537;-71
2020/12/07 08:48:13;;;;;;;5.87;5.03;;;;;;;;;;5003368;28;20541;-71
2020/12/07 08:51:22;;;;;;;5.80;4.97;;;;;;;;;;5015347;28;20541;-71
2020/12/07 08:54:26;;;;;;;5.27;4.77;;;;;;;;;;5014795;28;20596;-71
2020/12/07 08:57:30;;;;;;;8.33;5.07;;;;;;;;;;5013313;28;20648;-71
2020/12/07 09:00:34;;;;;;;5.53;5.03;;;;;;;;;;5000198;28;21144;-71
2020/12/07 09:03:44;;;;;;;5.40;4.50;;;;;;;;;;4995016;28;20534;-71
2020/12/07 09:06:52;;;;;;;5.73;4.80;;;;;;;;;;5009363;28;21209;-71
2020/12/07 09:09:55;;;;;;;4.70;4.10;;;;;;;;;;5005395;28;20637;-72
2020/12/07 09:13:01;;;;;;;5.10;4.33;;;;;;;;;;4996123;28;20198;-70
2020/12/07 09:16:06;;;;;;;7.47;5.07;;;;;;;;;;4981166;28;20225;-70
2020/12/07 09:19:10;;;;;;;6.20;5.60;;;;;;;;;;4988415;28;20530;-71
2020/12/07 09:22:14;;;;;;;5.83;5.00;;;;;;;;;;5010325;28;20640;-70
2020/12/07 09:25:18;;;;;;;5.23;4.57;;;;;;;;;;4982826;28;20182;-71
2020/12/07 09:28:22;;;;;;;5.17;4.57;;;;;;;;;;4992064;28;20201;-70
2020/12/07 09:31:27;;;;;;;5.70;5.10;;;;;;;;;;5002489;28;20186;-71
2020/12/07 09:34:31;;;;;;;6.17;5.57;;;;;;;;;;5012248;28;20926;-70
2020/12/07 09:37:36;;;;;;;6.07;5.10;;;;;;;;;;4994695;28;20217;-71
2020/12/07 09:40:40;;;;;;;6.07;4.87;;;;;;;;;;4960539;28;20210;-70
2020/12/07 09:43:44;;;;;;;10.27;6.40;;;;;;;;;;4994885;28;20197;-74
2020/12/07 09:46:48;;;;;;;10.03;7.07;;;;;;;;;;5003709;28;20668;-74
2020/12/07 09:49:52;;;;;;;6.20;5.37;;;;;;;;;;4998605;28;20633;-74
2020/12/07 09:52:56;;;;;;;5.80;5.20;;;;;;;;;;4992333;28;20232;-74
2020/12/07 09:56:00;;;;;;;8.23;6.10;;;;;;;;;;4991036;28;20217;-73
2020/12/07 09:59:04;;;;;;;22.93;13.23;;;;;;;;;;5002327;28;20182;-74
2020/12/07 10:02:09;;;;;;;4.80;4.30;;;;;;;;;;5012249;28;20194;-73
2020/12/07 10:05:13;;;;;;;4.30;3.90;;;;;;;;;;5005418;28;20186;-74
2020/12/07 10:08:18;;;;;;;4.77;4.20;;;;;;;;;;4999040;28;20210;-74
2020/12/07 10:11:22;;;;;;;4.63;4.10;;;;;;;;;;4994116;28;20556;-74
2020/12/07 10:14:27;;;;;;;4.83;4.13;;;;;;;;;;4994854;28;20190;-74
2020/12/07 10:17:31;;;;;;;4.50;4.10;;;;;;;;;;4994075;28;20561;-75
2020/12/07 10:20:35;;;;;;;3.83;3.40;;;;;;;;;;4995818;28;20640;-73
2020/12/07 10:23:39;;;;;;;3.60;3.20;;;;;;;;;;5013782;28;20173;-74
2020/12/07 10:26:43;;;;;;;3.10;2.63;;;;;;;;;;5001893;28;20225;-73
2020/12/07 10:29:47;;;;;;;3.97;3.50;;;;;;;;;;5003568;28;20205;-73
2020/12/07 10:32:51;;;;;;;4.67;3.87;;;;;;;;;;4996861;28;20518;-73
2020/12/07 10:35:55;;;;;;;3.83;3.43;;;;;;;;;;5005205;28;20213;-74
2020/12/07 10:39:00;;;;;;;5.40;4.53;;;;;;;;;;5031473;23;20226;-75
2020/12/07 10:42:04;;;;;;;9.67;6.47;;;;;;;;;;5021136;28;20192;-74
2020/12/07 10:45:08;;;;;;;3.97;3.57;;;;;;;;;;5008748;28;20185;-73
2020/12/07 10:48:12;;;;;;;6.40;3.80;;;;;;;;;;5013236;28;20206;-73
2020/12/07 10:51:18;;;;;;;5.00;3.80;;;;;;;;;;4990605;28;20182;-73
2020/12/07 10:54:22;;;;;;;5.03;4.40;;;;;;;;;;5001334;28;20173;-73
2020/12/07 10:57:26;;;;;;;3.87;2.97;;;;;;;;;;4995786;28;20214;-72
2020/12/07 11:00:30;;;;;;;6.00;3.30;;;;;;;;;;4970396;28;20657;-73
2020/12/07 11:03:35;;;;;;;4.30;3.90;;;;;;;;;;4981868;28;20526;-74
2020/12/07 11:06:44;;;;;;;3.30;3.00;;;;;;;;;;4990636;28;20217;-74
2020/12/07 11:09:48;;;;;;;4.13;3.30;;;;;;;;;;4986420;28;20525;-72
2020/12/07 11:13:01;;;;;;;5.03;4.53;;;;;;;;;;5002733;28;20190;-73
2020/12/07 11:16:09;;;;;;;4.03;3.37;;;;;;;;;;4994391;28;20565;-74
2020/12/07 11:19:13;;;;;;;3.10;2.80;;;;;;;;;;5013025;28;20174;-73
2020/12/07 11:22:17;;;;;;;5.07;3.40;;;;;;;;;;5010978;28;20185;-72
2020/12/07 11:25:21;;;;;;;4.00;3.30;;;;;;;;;;5012728;28;20185;-72
2020/12/07 11:28:26;;;;;;;3.30;3.00;;;;;;;;;;5013131;28;20652;-72
2020/12/07 11:31:30;;;;;;;4.03;3.60;;;;;;;;;;5013084;28;20182;-73
2020/12/07 11:34:34;;;;;;;5.30;4.27;;;;;;;;;;5013099;28;20193;-72
2020/12/07 11:37:39;;;;;;;4.30;3.90;;;;;;;;;;5000736;28;20217;-72
2020/12/07 11:41:05;;;;;;;4.10;3.70;;;;;;;;;;5004406;28;20178;-72
2020/12/07 11:44:15;;;;;;;4.00;3.60;;;;;;;;;;5004631;28;20521;-73
2020/12/07 11:47:21;;;;;;;12.53;10.60;;;;;;;;;;4993051;28;20221;-73
2020/12/07 11:50:26;;;;;;;3.50;3.20;;;;;;;;;;5016539;28;20174;-72
2020/12/07 11:53:30;;;;;;;6.37;4.10;;;;;;;;;;5016196;28;20529;-72
2020/12/07 11:56:39;;;;;;;4.40;3.93;;;;;;;;;;5016246;28;20225;-72
2020/12/07 11:59:43;;;;;;;11.70;7.80;;;;;;;;;;5016409;28;20170;-72
2020/12/07 12:02:47;;;;;;;3.03;2.70;;;;;;;;;;5004028;28;20181;-72
2020/12/07 12:05:51;;;;;;;2.97;2.67;;;;;;;;;;5016190;28;20213;-72
2020/12/07 12:08:55;;;;;;;2.80;2.57;;;;;;;;;;5015655;28;20209;-72
2020/12/07 12:11:59;;;;;;;3.10;2.60;;;;;;;;;;5016139;28;20178;-72
2020/12/07 12:15:04;;;;;;;3.13;2.83;;;;;;;;;;5016076;28;20186;-72
2020/12/07 12:18:08;;;;;;;3.80;3.30;;;;;;;;;;5003741;28;20170;-72
2020/12/07 12:21:12;;;;;;;4.13;3.73;;;;;;;;;;5015993;28;20186;-72
2020/12/07 12:24:17;;;;;;;2.80;2.60;;;;;;;;;;5015900;28;20186;-72
2020/12/07 12:27:22;;;;;;;2.97;2.70;;;;;;;;;;5015701;28;20233;-72
2020/12/07 12:30:26;;;;;;;2.70;2.40;;;;;;;;;;5003472;28;20177;-72
2020/12/07 12:33:31;;;;;;;3.00;2.60;;;;;;;;;;5015466;28;20185;-72
2020/12/07 12:36:35;;;;;;;3.03;2.10;;;;;;;;;;5003807;28;20213;-72
2020/12/07 12:39:39;;;;;;;2.50;2.27;;;;;;;;;;5015206;28;20655;-72
2020/12/07 12:42:43;;;;;;;2.23;2.03;;;;;;;;;;4989497;28;20194;-73
2020/12/07 12:45:47;;;;;;;3.27;2.70;;;;;;;;;;4996972;28;20213;-71
2020/12/07 12:48:51;;;;;;;3.37;2.50;;;;;;;;;;4995791;28;20214;-72
2020/12/07 12:51:56;;;;;;;2.83;2.53;;;;;;;;;;5009829;28;20667;-70
2020/12/07 12:55:01;;;;;;;3.40;2.77;;;;;;;;;;4995284;28;20206;-71
2020/12/07 12:58:05;;;;;;;4.07;2.80;;;;;;;;;;4995200;28;20534;-71
2020/12/07 13:01:09;;;;;;;4.07;3.33;;;;;;;;;;4983345;28;20182;-71
2020/12/07 13:04:13;;;;;;;4.27;3.30;;;;;;;;;;5010559;28;20572;-71
2020/12/07 13:07:18;;;;;;;3.73;3.20;;;;;;;;;;5014374;28;20217;-71
2020/12/07 13:10:22;;;;;;;6.13;3.83;;;;;;;;;;5003007;28;20181;-71
2020/12/07 13:13:26;;;;;;;6.83;3.47;;;;;;;;;;5012998;28;20185;-71
2020/12/07 13:16:47;;;;;;;3.50;2.90;;;;;;;;;;4995321;28;20226;-71
2020/12/07 13:19:52;;;;;;;3.43;2.93;;;;;;;;;;5007402;28;20194;-70
2020/12/07 13:23:09;;;;;;;3.77;2.97;;;;;;;;;;5002305;28;20198;-70
2020/12/07 13:27:09;;;;;;;3.63;2.90;;;;;;;;;;4974712;28;20588;-70
2020/12/07 13:29:41;;;;;;;3.30;3.00;;;;;;;;;;5020373;28;20173;-71
2020/12/07 13:32:45;;;;;;;3.53;3.23;;;;;;;;;;4996183;28;20189;-70
2020/12/07 13:35:49;;;;;;;3.67;3.07;;;;;;;;;;4998318;28;20591;-70
2020/12/07 13:38:53;;;;;;;5.40;3.77;;;;;;;;;;4979777;28;20213;-71
2020/12/07 13:41:57;;;;;;;5.53;3.33;;;;;;;;;;4994606;28;20201;-70
2020/12/07 13:45:01;;;;;;;4.87;3.40;;;;;;;;;;4982779;28;20174;-71
2020/12/07 13:48:05;;;;;;;4.13;3.50;;;;;;;;;;4999439;28;20209;-69
2020/12/07 13:51:11;;;;;;;4.00;3.40;;;;;;;;;;5010859;28;20197;-70
2020/12/07 13:54:15;;;;;;;3.77;3.37;;;;;;;;;;4989967;28;20202;-69
2020/12/07 13:57:19;;;;;;;4.33;3.40;;;;;;;;;;4994304;28;20214;-70
2020/12/07 14:00:23;;;;;;;4.67;3.53;;;;;;;;;;4994314;28;20182;-71
2020/12/07 14:03:32;;;;;;;5.57;4.37;;;;;;;;;;4994237;28;20186;-70
2020/12/07 14:06:36;;;;;;;4.03;3.40;;;;;;;;;;5011518;28;20221;-69
2020/12/07 14:09:40;;;;;;;4.20;3.80;;;;;;;;;;5001517;28;20213;-69
2020/12/07 14:12:44;;;;;;;5.07;4.07;;;;;;;;;;4994247;28;20190;-69
2020/12/07 14:15:48;;;;;;;4.03;3.53;;;;;;;;;;4994463;28;20225;-71
2020/12/07 14:29:05;;;;;;;3.90;3.20;;;;;;;;;;5013282;28;20225;-70
2020/12/07 14:41:43;;;;;;;6.43;4.50;;;;;;;;;;4993626;28;21076;-71
2020/12/07 14:44:50;;;;;;;6.20;4.30;;;;;;;;;;5002548;28;20589;-70
2020/12/07 14:48:00;;;;;;;6.57;4.00;;;;;;;;;;5012918;28;20592;-70
2020/12/07 14:51:50;;;;;;;6.10;3.93;;;;;;;;;;4989783;28;20228;-70
2020/12/07 14:54:47;;;;;;;4.83;4.10;;;;;;;;;;4987292;28;20569;-70
2020/12/07 15:17:07;;;;;;;6.17;4.87;;;;;;;;;;5016844;28;20620;-71
2020/12/07 15:20:11;;;;;;;17.23;10.80;;;;;;;;;;5001456;28;20592;-69
2020/12/07 15:23:15;;;;;;;10.57;8.27;;;;;;;;;;5004854;28;20904;-70
2020/12/07 15:26:20;;;;;;;14.30;9.53;;;;;;;;;;5016555;28;20662;-71
2020/12/07 15:29:24;;;;;;;19.43;12.53;;;;;;;;;;4963045;28;20585;-70
2020/12/07 15:32:28;;;;;;;19.90;13.73;;;;;;;;;;4996857;28;20558;-70
2020/12/07 15:35:32;;;;;;;11.10;7.50;;;;;;;;;;4996946;28;20604;-70
2020/12/07 15:38:39;;;;;;;7.70;5.93;;;;;;;;;;5010199;28;20627;-71
2020/12/07 15:41:44;;;;;;;7.83;5.33;;;;;;;;;;5016378;28;20585;-70
2020/12/07 15:44:48;;;;;;;9.87;7.20;;;;;;;;;;5015699;28;20541;-71
2020/12/07 15:47:52;;;;;;;12.93;6.83;;;;;;;;;;5008385;28;20585;-70
2020/12/07 15:50:56;;;;;;;8.63;6.43;;;;;;;;;;5011367;28;20585;-70
2020/12/07 15:54:00;;;;;;;8.47;6.60;;;;;;;;;;5016354;28;20544;-70
2020/12/07 15:57:04;;;;;;;6.50;4.90;;;;;;;;;;5000349;28;21055;-70
2020/12/07 16:00:09;;;;;;;7.87;5.47;;;;;;;;;;5016261;28;20536;-70
2020/12/07 16:03:13;;;;;;;6.97;6.07;;;;;;;;;;5016177;28;20540;-70
2020/12/07 16:06:17;;;;;;;7.37;5.77;;;;;;;;;;5016087;28;20632;-70
2020/12/07 16:09:22;;;;;;;7.23;6.07;;;;;;;;;;4984464;28;20629;-69
2020/12/07 16:12:26;;;;;;;10.90;8.20;;;;;;;;;;5002578;28;20580;-71
2020/12/07 16:15:30;;;;;;;8.97;7.33;;;;;;;;;;5015779;28;20600;-70
2020/12/07 16:18:34;;;;;;;9.80;7.83;;;;;;;;;;4989352;28;20574;-70
2020/12/07 16:21:38;;;;;;;18.50;10.97;;;;;;;;;;5008788;28;20959;-71
2020/12/07 16:24:44;;;;;;;38.27;19.17;;;;;;;;;;4995845;28;20886;-71
2020/12/07 16:27:48;;;;;;;14.07;10.30;;;;;;;;;;4983832;28;20645;-71
2020/12/07 16:30:52;;;;;;;12.87;9.53;;;;;;;;;;4996405;28;20534;-71
2020/12/07 16:33:57;;;;;;;12.57;8.70;;;;;;;;;;4984780;28;20588;-70
2020/12/07 16:37:01;;;;;;;13.93;10.80;;;;;;;;;;5004425;28;20651;-70
2020/12/07 16:40:06;;;;;;;14.50;10.33;;;;;;;;;;4995696;28;20640;-70
2020/12/07 16:43:10;;;;;;;13.67;10.13;;;;;;;;;;4995704;28;20600;-70
2020/12/07 16:46:18;;;;;;;17.67;11.50;;;;;;;;;;4989494;28;21044;-71
2020/12/07 16:49:23;;;;;;;15.73;12.23;;;;;;;;;;4981929;28;21197;-70
2020/12/07 16:52:27;;;;;;;17.57;12.30;;;;;;;;;;5003712;28;20541;-71
2020/12/07 16:55:31;;;;;;;15.13;11.83;;;;;;;;;;5002811;28;20553;-71
2020/12/07 16:58:36;;;;;;;15.07;11.67;;;;;;;;;;5013383;28;20588;-70
2020/12/07 17:01:40;;;;;;;15.40;11.87;;;;;;;;;;5003142;28;20552;-70
2020/12/07 17:04:44;;;;;;;17.73;12.63;;;;;;;;;;4987343;28;20589;-70
2020/12/07 17:07:48;;;;;;;21.00;15.07;;;;;;;;;;4995044;28;20993;-71
2020/12/07 17:10:52;;;;;;;25.47;17.70;;;;;;;;;;5002281;28;20569;-73
2020/12/07 17:13:57;;;;;;;28.10;17.70;;;;;;;;;;5015005;28;20597;-71
2020/12/07 17:17:01;;;;;;;22.33;14.27;;;;;;;;;;5012297;28;20660;-70
2020/12/07 17:20:05;;;;;;;21.03;14.20;;;;;;;;;;5001233;28;20585;-70
2020/12/07 17:23:09;;;;;;;17.60;12.57;;;;;;;;;;4995077;28;20549;-71
2020/12/07 17:26:14;;;;;;;18.13;12.70;;;;;;;;;;5002457;28;20958;-70
2020/12/07 17:29:18;;;;;;;16.83;12.37;;;;;;;;;;5013649;28;20605;-70
2020/12/07 17:32:22;;;;;;;16.93;11.97;;;;;;;;;;5009876;28;20596;-71
2020/12/07 17:35:26;;;;;;;17.37;12.87;;;;;;;;;;5014332;28;20544;-71
2020/12/07 17:38:30;;;;;;;14.80;10.93;;;;;;;;;;5010754;28;20631;-71
2020/12/07 17:41:35;;;;;;;13.87;10.87;;;;;;;;;;5002216;28;20577;-71
2020/12/07 17:44:40;;;;;;;14.07;9.77;;;;;;;;;;4995885;28;20577;-71
2020/12/07 17:47:47;;;;;;;13.00;9.40;;;;;;;;;;5001772;28;20632;-70
2020/12/07 17:50:51;;;;;;;15.20;10.70;;;;;;;;;;5004580;28;21206;-71
2020/12/07 17:53:56;;;;;;;13.40;9.73;;;;;;;;;;4994316;28;20557;-71
2020/12/07 17:57:01;;;;;;;13.17;9.50;;;;;;;;;;5002570;28;20655;-70
2020/12/07 18:00:06;;;;;;;12.43;9.07;;;;;;;;;;5001975;28;20611;-71
2020/12/07 18:03:10;;;;;;;11.10;8.40;;;;;;;;;;4995895;28;20628;-71
2020/12/07 18:06:21;;;;;;;10.07;7.43;;;;;;;;;;5001153;28;20644;-70
2020/12/07 18:09:30;;;;;;;12.87;8.90;;;;;;;;;;4982111;28;21155;-70
2020/12/07 18:12:35;;;;;;;13.47;9.50;;;;;;;;;;4994254;28;20534;-71
2020/12/07 18:15:39;;;;;;;16.80;9.87;;;;;;;;;;4993841;28;20589;-71
2020/12/07 18:18:43;;;;;;;12.23;8.47;;;;;;;;;;4999719;28;20537;-71
2020/12/07 18:21:48;;;;;;;11.77;8.20;;;;;;;;;;4982170;28;20545;-71
2020/12/07 18:24:51;;;;;;;11.97;8.87;;;;;;;;;;4981974;28;20596;-71
2020/12/07 18:27:57;;;;;;;12.37;9.23;;;;;;;;;;5009573;28;20618;-71
2020/12/07 18:31:03;;;;;;;12.63;9.10;;;;;;;;;;5013174;28;20597;-71
2020/12/07 18:34:07;;;;;;;12.27;8.77;;;;;;;;;;4982015;28;20546;-71
2020/12/07 18:37:12;;;;;;;12.30;8.03;;;;;;;;;;5002933;28;20652;-71
2020/12/07 18:40:17;;;;;;;12.67;9.40;;;;;;;;;;5013247;28;20912;-71
2020/12/07 18:43:21;;;;;;;12.50;9.10;;;;;;;;;;5006322;28;20601;-72
2020/12/07 18:46:25;;;;;;;11.47;8.50;;;;;;;;;;4988706;28;20655;-70
2020/12/07 18:49:29;;;;;;;12.30;8.83;;;;;;;;;;5014780;28;20632;-70
2020/12/07 18:52:34;;;;;;;11.60;8.63;;;;;;;;;;5005591;28;20541;-71
2020/12/07 18:55:38;;;;;;;11.80;8.73;;;;;;;;;;5016463;28;20552;-70
2020/12/07 18:58:42;;;;;;;12.23;9.10;;;;;;;;;;4997472;28;21095;-70
2020/12/07 19:01:50;;;;;;;11.40;8.30;;;;;;;;;;5006227;28;20616;-70
2020/12/07 19:04:55;;;;;;;12.47;9.07;;;;;;;;;;5017324;28;21079;-70
2020/12/07 19:07:59;;;;;;;11.17;8.47;;;;;;;;;;4999768;28;20593;-69
2020/12/07 19:11:03;;;;;;;11.97;8.70;;;;;;;;;;5004481;28;20633;-69
2020/12/07 19:14:07;;;;;;;12.00;8.60;;;;;;;;;;4997226;28;20549;-70
2020/12/07 19:17:11;;;;;;;10.10;8.00;;;;;;;;;;5006948;28;20639;-68
2020/12/07 19:20:16;;;;;;;11.43;8.23;;;;;;;;;;5004204;28;20532;-69
2020/12/07 19:23:20;;;;;;;12.10;9.27;;;;;;;;;;5014920;28;20580;-69
2020/12/07 19:26:24;;;;;;;13.13;8.70;;;;;;;;;;5015475;28;20627;-71
2020/12/07 19:29:29;;;;;;;11.47;8.83;;;;;;;;;;5002209;28;21221;-69